createdAt,value
2019-05-10T00:02:23.908Z,11.50
2019-05-10T00:05:31.931Z,11.50
2019-05-10T00:08:39.896Z,11.50
2019-05-10T00:12:01.721Z,11.50
2019-05-10T00:15:04.353Z,11.50
2019-05-10T00:18:06.591Z,11.50
2019-05-10T00:21:08.839Z,11.50
2019-05-10T00:24:11.053Z,11.40
2019-05-10T00:27:13.322Z,11.40
2019-05-10T00:30:15.592Z,11.40
2019-05-10T00:33:17.887Z,11.40
2019-05-10T00:36:20.131Z,11.30
2019-05-10T00:39:22.349Z,11.40
2019-05-10T00:42:24.563Z,11.30
2019-05-10T00:45:26.804Z,11.30
2019-05-10T00:48:29.056Z,11.30
2019-05-10T00:51:31.288Z,11.40
2019-05-10T00:54:33.595Z,11.30
2019-05-10T00:57:35.812Z,11.40
2019-05-10T01:00:38.077Z,11.30
2019-05-10T01:03:40.320Z,11.40
2019-05-10T01:06:42.591Z,11.30
2019-05-10T01:09:44.798Z,11.30
2019-05-10T01:12:47.039Z,11.30
2019-05-10T01:15:49.513Z,11.30
2019-05-10T01:18:51.793Z,11.30
2019-05-10T01:21:53.999Z,11.30
2019-05-10T01:24:56.236Z,11.20
2019-05-10T01:27:58.492Z,11.20
2019-05-10T01:31:00.845Z,11.20
2019-05-10T01:34:03.100Z,11.20
2019-05-10T01:37:05.309Z,11.10
2019-05-10T01:40:07.627Z,11.10
2019-05-10T01:43:09.922Z,11.00
2019-05-10T01:46:12.148Z,11.00
2019-05-10T01:49:14.374Z,10.90
2019-05-10T01:52:16.616Z,10.90
2019-05-10T01:55:18.831Z,10.90
2019-05-10T01:58:21.047Z,10.80
2019-05-10T02:01:23.302Z,10.80
2019-05-10T02:04:25.564Z,10.80
2019-05-10T02:07:27.821Z,10.70
2019-05-10T02:10:30.085Z,10.70
2019-05-10T02:13:32.282Z,10.60
2019-05-10T02:16:34.508Z,10.60
2019-05-10T02:19:36.745Z,10.50
2019-05-10T02:22:38.966Z,10.50
2019-05-10T02:25:41.225Z,10.50
2019-05-10T02:28:43.543Z,10.40
2019-05-10T02:31:45.818Z,10.40
2019-05-10T02:34:48.100Z,10.30
2019-05-10T02:37:50.348Z,10.30
2019-05-10T02:40:52.628Z,10.30
2019-05-10T02:43:54.839Z,10.20
2019-05-10T02:46:57.067Z,10.20
2019-05-10T02:49:59.549Z,10.10
2019-05-10T02:53:01.609Z,10.10
2019-05-10T02:56:03.933Z,10.10
2019-05-10T02:59:06.375Z,10.00
2019-05-10T03:02:08.648Z,10.00
2019-05-10T03:05:10.900Z,10.00
2019-05-10T03:08:13.720Z,10.00
2019-05-10T03:11:15.973Z,9.90
2019-05-10T03:14:18.393Z,9.90
2019-05-10T03:17:20.657Z,9.90
2019-05-10T03:20:22.969Z,9.90
2019-05-10T03:23:25.223Z,9.90
2019-05-10T03:26:27.462Z,9.90
2019-05-10T03:29:29.710Z,9.90
2019-05-10T03:32:31.970Z,9.80
2019-05-10T03:35:34.219Z,9.80
2019-05-10T03:38:36.567Z,9.80
2019-05-10T03:41:38.806Z,9.70
2019-05-10T03:44:41.032Z,9.70
2019-05-10T03:47:43.289Z,9.60
2019-05-10T03:50:45.556Z,9.60
2019-05-10T03:53:47.807Z,9.60
2019-05-10T03:57:10.333Z,9.50
2019-05-10T03:59:52.290Z,9.40
2019-05-10T04:02:54.565Z,9.40
2019-05-10T04:05:56.821Z,9.30
2019-05-10T04:08:59.054Z,9.30
2019-05-10T04:12:01.344Z,9.30
2019-05-10T04:15:04.930Z,9.20
2019-05-10T04:18:07.228Z,9.30
2019-05-10T04:21:09.464Z,9.20
2019-05-10T04:24:11.660Z,9.20
2019-05-10T04:27:30.604Z,9.20
2019-05-10T04:30:16.331Z,9.20
2019-05-10T04:33:18.598Z,9.20
2019-05-10T04:36:20.892Z,9.20
2019-05-10T04:39:23.232Z,9.20
2019-05-10T04:42:25.477Z,9.20
2019-05-10T04:45:27.778Z,9.30
2019-05-10T04:48:30.063Z,9.30
2019-05-10T04:51:32.287Z,9.30
2019-05-10T04:54:34.581Z,9.40
2019-05-10T04:57:49.736Z,9.40
2019-05-10T05:00:39.097Z,9.50
2019-05-10T05:03:41.340Z,9.50
2019-05-10T05:06:43.580Z,9.60
2019-05-10T05:09:45.845Z,9.80
2019-05-10T05:12:48.089Z,10.00
2019-05-10T05:15:50.458Z,10.20
2019-05-10T05:18:52.683Z,10.40
2019-05-10T05:21:54.905Z,10.60
2019-05-10T05:25:01.057Z,10.70
2019-05-10T05:28:08.066Z,11.00
2019-05-10T05:31:01.853Z,11.30
2019-05-10T05:34:04.911Z,11.50
2019-05-10T05:37:06.401Z,11.70
2019-05-10T05:40:08.711Z,11.80
2019-05-10T05:43:11.011Z,11.80
2019-05-10T05:46:14.660Z,11.90
2019-05-10T05:49:15.617Z,11.90
2019-05-10T05:52:17.930Z,12.10
2019-05-10T05:55:22.985Z,12.20
2019-05-10T05:58:27.001Z,12.20
2019-05-10T06:01:28.987Z,12.40
2019-05-10T06:04:26.984Z,12.60
2019-05-10T06:07:31.130Z,12.80
2019-05-10T06:10:31.583Z,12.90
2019-05-10T06:13:33.811Z,13.00
2019-05-10T06:16:36.043Z,13.00
2019-05-10T06:19:38.273Z,13.00
2019-05-10T06:22:45.579Z,13.00
2019-05-10T06:25:43.108Z,13.00
2019-05-10T06:28:58.604Z,13.10
2019-05-10T06:31:47.331Z,13.10
2019-05-10T06:34:49.575Z,13.10
2019-05-10T06:37:51.867Z,13.10
2019-05-10T06:40:54.138Z,13.00
2019-05-10T06:43:56.351Z,13.00
2019-05-10T06:47:02.263Z,13.00
2019-05-10T06:50:00.899Z,13.00
2019-05-10T06:53:07.947Z,13.00
2019-05-10T06:56:05.457Z,13.00
2019-05-10T06:59:13.301Z,13.00
2019-05-10T07:02:10.081Z,12.90
2019-05-10T07:05:12.412Z,12.90
2019-05-10T07:08:20.177Z,13.00
2019-05-10T07:11:16.936Z,13.00
2019-05-10T07:14:25.397Z,13.00
2019-05-10T07:17:21.486Z,13.10
2019-05-10T07:20:29.307Z,13.10
2019-05-10T07:23:29.741Z,13.10
2019-05-10T07:26:28.468Z,13.20
2019-05-10T07:29:41.834Z,13.20
2019-05-10T07:32:33.023Z,13.10
2019-05-10T07:35:36.821Z,13.10
2019-05-10T07:38:37.619Z,13.10
2019-05-10T07:41:39.921Z,13.00
2019-05-10T07:44:46.717Z,13.00
2019-05-10T07:47:44.533Z,12.90
2019-05-10T07:50:49.595Z,12.90
2019-05-10T07:53:49.320Z,12.80
2019-05-10T07:56:51.622Z,12.80
2019-05-10T07:59:57.476Z,12.70
2019-05-10T08:03:07.507Z,12.30
2019-05-10T08:06:01.803Z,12.10
2019-05-10T08:09:04.185Z,11.70
2019-05-10T08:12:05.133Z,11.50
2019-05-10T08:15:08.424Z,11.20
2019-05-10T08:18:09.816Z,11.10
2019-05-10T08:21:21.480Z,11.10
2019-05-10T08:24:16.139Z,11.00
2019-05-10T08:27:15.236Z,11.00
2019-05-10T08:30:28.972Z,11.00
2019-05-10T08:33:27.745Z,11.00
2019-05-10T08:36:32.034Z,11.10
2019-05-10T08:39:43.940Z,11.20
2019-05-10T08:42:44.400Z,11.30
2019-05-10T08:45:38.696Z,11.40
2019-05-10T08:48:46.183Z,11.60
2019-05-10T08:51:47.774Z,11.80
2019-05-10T08:54:44.457Z,11.90
2019-05-10T08:57:49.209Z,12.10
2019-05-10T09:01:04.781Z,12.20
2019-05-10T09:03:59.026Z,12.40
2019-05-10T09:06:59.630Z,12.60
2019-05-10T09:09:57.133Z,12.80
2019-05-10T09:12:59.449Z,13.00
2019-05-10T09:16:02.385Z,13.10
2019-05-10T09:19:04.382Z,13.30
2019-05-10T09:22:06.667Z,13.40
2019-05-10T09:25:09.008Z,13.60
2019-05-10T09:28:16.794Z,13.70
2019-05-10T09:31:21.832Z,13.90
2019-05-10T09:34:16.702Z,14.00
2019-05-10T09:37:18.963Z,14.00
2019-05-10T09:40:21.984Z,14.10
2019-05-10T09:43:24.332Z,14.10
2019-05-10T09:46:25.861Z,14.10
2019-05-10T09:49:28.180Z,14.20
2019-05-10T09:52:30.462Z,14.20
2019-05-10T09:55:32.763Z,14.20
2019-05-10T09:58:35.031Z,14.30
2019-05-10T10:01:37.310Z,14.30
2019-05-10T10:04:39.562Z,14.30
2019-05-10T10:07:41.832Z,14.30
2019-05-10T10:10:44.138Z,14.20
2019-05-10T10:13:51.973Z,14.00
2019-05-10T10:16:57.885Z,13.80
2019-05-10T10:19:51.187Z,13.60
2019-05-10T10:22:54.641Z,13.50
2019-05-10T10:25:57.797Z,13.40
2019-05-10T10:29:00.102Z,13.40
2019-05-10T10:32:00.320Z,13.30
2019-05-10T10:35:02.601Z,13.20
2019-05-10T10:38:08.033Z,12.90
2019-05-10T10:41:09.908Z,12.70
2019-05-10T10:44:12.191Z,12.40
2019-05-10T10:47:14.496Z,12.10
2019-05-10T10:50:17.252Z,12.00
2019-05-10T10:53:19.156Z,11.90
2019-05-10T10:56:21.433Z,11.90
2019-05-10T10:59:24.057Z,12.00
2019-05-10T11:02:32.758Z,12.00
2019-05-10T11:05:28.615Z,12.00
2019-05-10T11:08:33.081Z,12.00
2019-05-10T11:11:38.928Z,12.10
2019-05-10T11:14:40.105Z,12.20
2019-05-10T11:17:37.719Z,12.40
2019-05-10T11:20:42.050Z,12.40
2019-05-10T11:23:42.289Z,12.40
2019-05-10T11:26:45.018Z,12.40
2019-05-10T11:29:46.755Z,12.40
2019-05-10T11:32:49.054Z,12.40
2019-05-10T11:35:51.513Z,12.40
2019-05-10T11:38:58.578Z,12.50
2019-05-10T11:42:02.377Z,12.60
2019-05-10T11:45:00.619Z,12.70
2019-05-10T11:48:02.277Z,12.80
2019-05-10T11:51:05.808Z,12.90
2019-05-10T11:54:05.026Z,12.90
2019-05-10T11:57:12.814Z,13.00
2019-05-10T12:00:14.247Z,13.00
2019-05-10T12:03:18.193Z,13.00
2019-05-10T12:06:14.239Z,13.20
2019-05-10T12:09:16.520Z,13.30
2019-05-10T12:12:29.623Z,13.40
2019-05-10T12:18:26.778Z,13.50
2019-05-10T12:21:26.247Z,13.50
2019-05-10T12:24:45.240Z,13.50
2019-05-10T12:26:31.278Z,13.40
2019-05-10T12:27:44.390Z,13.40
2019-05-10T12:30:34.889Z,13.40
2019-05-10T12:33:35.815Z,13.40
2019-05-10T12:36:38.152Z,13.60
2019-05-10T12:39:40.444Z,13.70
2019-05-10T12:42:42.755Z,13.80
2019-05-10T12:45:45.035Z,14.00
2019-05-10T12:48:47.293Z,14.10
2019-05-10T12:51:51.379Z,14.20
2019-05-10T12:54:52.075Z,14.20
2019-05-10T12:57:54.385Z,14.20
2019-05-10T13:00:58.991Z,14.10
2019-05-10T13:04:01.834Z,14.10
2019-05-10T13:07:01.279Z,14.20
2019-05-10T13:10:07.617Z,14.30
2019-05-10T13:13:06.221Z,14.40
2019-05-10T13:16:09.491Z,14.50
2019-05-10T13:19:14.074Z,14.60
2019-05-10T13:22:13.393Z,14.70
2019-05-10T13:25:15.647Z,14.60
2019-05-10T13:28:17.924Z,14.60
2019-05-10T13:31:20.173Z,14.60
2019-05-10T13:34:24.393Z,14.50
2019-05-10T13:37:25.366Z,14.50
2019-05-10T13:40:27.405Z,14.50
2019-05-10T13:43:29.908Z,14.40
2019-05-10T13:46:32.260Z,14.40
2019-05-10T13:49:34.729Z,14.40
2019-05-10T13:52:38.908Z,14.40
2019-05-10T13:55:39.705Z,14.40
2019-05-10T13:58:42.110Z,14.50
2019-05-10T14:01:49.549Z,14.50
2019-05-10T14:04:47.824Z,14.50
2019-05-10T14:07:53.390Z,14.50
2019-05-10T14:11:01.643Z,14.50
2019-05-10T14:13:59.372Z,14.50
2019-05-10T14:17:01.654Z,14.60
2019-05-10T14:20:04.733Z,14.60
2019-05-10T14:23:07.098Z,14.70
2019-05-10T14:26:15.713Z,14.70
2019-05-10T14:29:11.706Z,14.70
2019-05-10T14:32:14.027Z,14.80
2019-05-10T14:35:21.995Z,14.80
2019-05-10T14:38:18.612Z,14.90
2019-05-10T14:41:20.847Z,15.00
2019-05-10T14:44:23.130Z,15.10
2019-05-10T14:47:25.394Z,15.20
2019-05-10T14:50:28.470Z,15.20
2019-05-10T14:53:29.952Z,15.20
2019-05-10T14:56:32.232Z,15.20
2019-05-10T14:59:34.534Z,15.30
2019-05-10T15:02:36.787Z,15.30
2019-05-10T15:05:39.075Z,15.40
2019-05-10T15:08:41.321Z,15.40
2019-05-10T15:11:43.572Z,15.50
2019-05-10T15:14:45.839Z,15.50
2019-05-10T15:17:48.084Z,15.50
2019-05-10T15:20:50.402Z,15.50
2019-05-10T15:23:55.389Z,15.50
2019-05-10T15:26:54.950Z,15.60
2019-05-10T15:29:58.823Z,15.60
2019-05-10T15:32:59.512Z,15.60
2019-05-10T15:36:01.836Z,15.60
2019-05-10T15:39:05.953Z,15.60
2019-05-10T15:42:08.215Z,15.70
2019-05-10T15:45:12.450Z,15.70
2019-05-10T15:48:12.965Z,15.70
2019-05-10T15:51:16.957Z,15.70
2019-05-10T15:54:17.561Z,15.80
2019-05-10T15:57:21.687Z,15.80
2019-05-10T16:00:25.131Z,15.70
2019-05-10T16:03:24.489Z,15.60
2019-05-10T16:06:26.789Z,15.50
2019-05-10T16:09:29.061Z,15.40
2019-05-10T16:12:31.356Z,15.30
2019-05-10T16:15:33.648Z,15.30
2019-05-10T16:18:39.932Z,15.20
2019-05-10T16:21:38.188Z,15.10
2019-05-10T16:24:40.452Z,15.10
2019-05-10T16:27:44.914Z,15.10
2019-05-10T16:30:47.013Z,15.00
2019-05-10T16:33:48.132Z,15.00
2019-05-10T16:36:49.447Z,14.90
2019-05-10T16:39:51.667Z,14.90
2019-05-10T16:42:53.935Z,14.80
2019-05-10T16:45:56.263Z,14.80
2019-05-10T16:48:58.464Z,14.70
2019-05-10T16:52:00.723Z,14.70
2019-05-10T16:55:04.110Z,14.60
2019-05-10T16:58:09.548Z,14.60
2019-05-10T17:01:07.856Z,14.60
2019-05-10T17:04:10.096Z,14.60
2019-05-10T17:07:12.799Z,14.50
2019-05-10T17:10:14.603Z,14.50
2019-05-10T17:13:16.942Z,14.50
2019-05-10T17:16:19.213Z,14.40
2019-05-10T17:19:21.452Z,14.40
2019-05-10T17:22:23.683Z,14.40
2019-05-10T17:25:25.953Z,14.40
2019-05-10T17:28:29.694Z,14.30
2019-05-10T17:31:30.427Z,14.30
2019-05-10T17:34:32.677Z,14.20
2019-05-10T17:37:35.802Z,14.20
2019-05-10T17:40:37.255Z,14.10
2019-05-10T17:43:39.520Z,14.10
2019-05-10T17:46:41.803Z,14.00
2019-05-10T17:49:44.033Z,14.00
2019-05-10T17:52:46.393Z,13.90
2019-05-10T17:55:55.778Z,13.90
2019-05-10T17:58:50.899Z,13.90
2019-05-10T18:01:53.128Z,13.90
2019-05-10T18:04:59.626Z,13.80
2019-05-10T18:07:57.726Z,13.80
2019-05-10T18:11:03.953Z,13.80
2019-05-10T18:14:02.263Z,13.80
2019-05-10T18:17:07.109Z,13.70
2019-05-10T18:20:06.812Z,13.70
2019-05-10T18:23:09.065Z,13.60
2019-05-10T18:26:11.296Z,13.70
2019-05-10T18:29:13.519Z,13.60
2019-05-10T18:32:15.757Z,13.60
2019-05-10T18:35:18.022Z,13.50
2019-05-10T18:38:20.254Z,13.50
2019-05-10T18:41:22.497Z,13.40
2019-05-10T18:44:24.729Z,13.40
2019-05-10T18:47:26.962Z,13.40
2019-05-10T18:50:29.184Z,13.40
2019-05-10T18:53:31.504Z,13.30
2019-05-10T18:56:33.727Z,13.30
2019-05-10T18:59:39.905Z,13.30
2019-05-10T19:02:39.916Z,13.20
2019-05-10T19:05:42.133Z,13.20
2019-05-10T19:08:44.446Z,13.20
2019-05-10T19:11:46.670Z,13.20
2019-05-10T19:14:48.920Z,13.20
2019-05-10T19:17:51.159Z,13.20
2019-05-10T19:20:55.185Z,13.10
2019-05-10T19:23:55.577Z,13.10
2019-05-10T19:27:01.388Z,13.00
2019-05-10T19:30:00.030Z,13.00
2019-05-10T19:33:02.259Z,13.00
2019-05-10T19:36:12.175Z,13.00
2019-05-10T19:39:06.912Z,12.90
2019-05-10T19:42:09.198Z,12.90
2019-05-10T19:45:12.813Z,12.80
2019-05-10T19:48:13.798Z,12.80
2019-05-10T19:51:16.087Z,12.70
2019-05-10T19:54:21.070Z,12.70
2019-05-10T19:57:20.750Z,12.70
2019-05-10T20:00:23.076Z,12.70
2019-05-10T20:03:25.314Z,12.70
2019-05-10T20:06:27.556Z,12.60
2019-05-10T20:09:29.760Z,12.60
2019-05-10T20:12:32.012Z,12.60
2019-05-10T20:15:34.224Z,12.60
2019-05-10T20:18:36.447Z,12.60
2019-05-10T20:21:38.681Z,12.60
2019-05-10T20:24:40.916Z,12.60
2019-05-10T20:27:43.187Z,12.60
2019-05-10T20:30:45.411Z,12.60
2019-05-10T20:33:47.674Z,12.70
2019-05-10T20:36:49.929Z,12.60
2019-05-10T20:39:52.181Z,12.70
2019-05-10T20:42:54.432Z,12.70
2019-05-10T20:45:56.629Z,12.70
2019-05-10T20:48:58.904Z,12.70
2019-05-10T20:52:01.215Z,12.70
2019-05-10T20:55:03.565Z,12.70
2019-05-10T20:58:05.809Z,12.70
2019-05-10T21:01:08.023Z,12.70
2019-05-10T21:04:10.253Z,12.70
2019-05-10T21:07:12.681Z,12.70
2019-05-10T21:10:14.952Z,12.70
2019-05-10T21:13:17.195Z,12.70
2019-05-10T21:16:19.431Z,12.70
2019-05-10T21:19:21.656Z,12.70
2019-05-10T21:22:23.909Z,12.70
2019-05-10T21:25:26.194Z,12.70
2019-05-10T21:28:28.424Z,12.60
2019-05-10T21:31:30.673Z,12.60
2019-05-10T21:34:32.991Z,12.60
2019-05-10T21:37:35.181Z,12.60
2019-05-10T21:40:37.454Z,12.60
2019-05-10T21:43:39.679Z,12.60
2019-05-10T21:46:42.004Z,12.60
2019-05-10T21:49:44.236Z,12.50
2019-05-10T21:52:46.528Z,12.60
2019-05-10T21:55:48.773Z,12.50
2019-05-10T21:58:51.004Z,12.60
2019-05-10T22:01:53.277Z,12.60
2019-05-10T22:04:55.521Z,12.50
2019-05-10T22:07:57.845Z,12.60
2019-05-10T22:11:00.131Z,12.60
2019-05-10T22:14:02.488Z,12.60
2019-05-10T22:17:04.787Z,12.50
2019-05-10T22:20:07.118Z,12.50
2019-05-10T22:23:09.435Z,12.60
2019-05-10T22:26:11.758Z,12.50
2019-05-10T22:29:14.151Z,12.50
2019-05-10T22:32:16.452Z,12.50
2019-05-10T22:35:18.748Z,12.50
2019-05-10T22:38:21.085Z,12.50
2019-05-10T22:41:23.394Z,12.50
2019-05-10T22:44:25.678Z,12.50
2019-05-10T22:47:28.003Z,12.50
2019-05-10T22:50:30.380Z,12.50
2019-05-10T22:53:32.674Z,12.50
2019-05-10T22:56:34.956Z,12.50
2019-05-10T22:59:37.287Z,12.50
2019-05-10T23:02:39.579Z,12.50
2019-05-10T23:05:41.872Z,12.50
2019-05-10T23:08:44.176Z,12.50
2019-05-10T23:11:46.484Z,12.50
2019-05-10T23:14:48.755Z,12.40
2019-05-10T23:17:51.110Z,12.40
2019-05-10T23:20:53.433Z,12.40
2019-05-10T23:23:55.743Z,12.40
2019-05-10T23:26:58.055Z,12.40
2019-05-10T23:30:00.371Z,12.40
2019-05-10T23:33:02.660Z,12.40
2019-05-10T23:36:04.955Z,12.40
2019-05-10T23:39:07.365Z,12.30
2019-05-10T23:42:09.670Z,12.30
2019-05-10T23:45:12.007Z,12.40
2019-05-10T23:48:14.327Z,12.30
2019-05-10T23:51:16.623Z,12.40
2019-05-10T23:54:19.024Z,12.30
2019-05-10T23:57:21.339Z,12.30
